Terminal Aerodrome Forecast
Issued by NWS

Current Version | Previous Version | Text Only | Print | Product List | Glossary On
Versions: 1 2 3 4 5 6 7 8 9 10 11 12 13 14 15 16 17 18 19 20 21 22 23 24 25 26 27 28
000
FTUS43 KJKL 032320
TAFSJS
TAF
KSJS 032320Z 0400/0424 00000KT P6SM VCTS SCT023CB SCT035 OVC090
     FM040200 00000KT P6SM FEW030 SCT090 SCT250
     FM040400 00000KT 4SM BR SCT040
     FM041200 00000KT 1SM BR SCT015
     FM041500 18003KT P6SM BKN040=

USA.gov is the U.S. government's official web portal to all federal, state and local government web resources and services.